createdAt,value
2018-03-20T00:01:54.272Z,20.17
2018-03-20T00:04:20.274Z,20.17
2018-03-20T00:06:46.355Z,20.22
2018-03-20T00:09:12.304Z,20.22
2018-03-20T00:11:38.402Z,20.11
2018-03-20T00:14:04.419Z,20.12
2018-03-20T00:16:30.425Z,20.07
2018-03-20T00:18:56.476Z,20.07
2018-03-20T00:21:22.587Z,20.10
2018-03-20T00:23:48.600Z,20.03
2018-03-20T00:26:14.613Z,20.13
2018-03-20T00:28:40.603Z,20.09
2018-03-20T00:31:06.633Z,20.13
2018-03-20T00:33:32.607Z,20.13
2018-03-20T00:35:58.602Z,20.14
2018-03-20T00:38:24.576Z,20.20
2018-03-20T00:40:50.529Z,20.23
2018-03-20T00:43:16.510Z,20.17
2018-03-20T00:45:42.558Z,20.24
2018-03-20T00:48:08.511Z,20.19
2018-03-20T00:50:34.461Z,20.20
2018-03-20T00:53:00.470Z,20.16
2018-03-20T00:55:26.422Z,20.20
2018-03-20T00:57:52.378Z,20.13
2018-03-20T01:00:18.337Z,20.13
2018-03-20T01:02:44.301Z,20.11
2018-03-20T01:05:10.271Z,20.03
2018-03-20T01:07:36.369Z,20.01
2018-03-20T01:10:02.326Z,20.02
2018-03-20T01:12:28.319Z,20.03
2018-03-20T01:14:54.300Z,20.09
2018-03-20T01:17:20.286Z,20.04
2018-03-20T01:19:46.239Z,20.09
2018-03-20T01:22:12.202Z,20.02
2018-03-20T01:24:38.153Z,20.09
2018-03-20T01:27:04.118Z,20.15
2018-03-20T01:29:30.121Z,20.19
2018-03-20T01:31:56.074Z,20.08
2018-03-20T01:34:22.064Z,19.98
2018-03-20T01:36:48.046Z,19.95
2018-03-20T01:39:13.994Z,19.94
2018-03-20T01:41:39.973Z,19.92
2018-03-20T01:44:05.917Z,19.93
2018-03-20T01:46:31.897Z,19.88
2018-03-20T01:48:57.847Z,19.90
2018-03-20T01:51:23.807Z,19.78
2018-03-20T01:53:49.795Z,19.77
2018-03-20T01:56:15.767Z,19.79
2018-03-20T01:58:41.758Z,19.73
2018-03-20T02:01:07.715Z,19.87
2018-03-20T02:03:33.669Z,19.76
2018-03-20T02:05:59.628Z,19.84
2018-03-20T02:08:25.622Z,19.83
2018-03-20T02:10:51.581Z,19.86
2018-03-20T02:13:17.558Z,19.80
2018-03-20T02:15:43.518Z,19.77
2018-03-20T02:18:09.476Z,19.79
2018-03-20T02:20:35.441Z,19.82
2018-03-20T02:23:01.401Z,19.82
2018-03-20T02:25:27.378Z,19.77
2018-03-20T02:27:53.334Z,19.68
2018-03-20T02:30:19.294Z,19.71
2018-03-20T02:32:45.249Z,19.85
2018-03-20T02:35:11.206Z,19.76
2018-03-20T02:37:37.181Z,19.77
2018-03-20T02:40:03.167Z,19.70
2018-03-20T02:42:29.123Z,19.62
2018-03-20T02:44:55.097Z,19.66
2018-03-20T02:47:21.048Z,19.65
2018-03-20T02:49:47.025Z,19.67
2018-03-20T02:52:12.994Z,19.72
2018-03-20T02:54:38.982Z,19.78
2018-03-20T02:57:04.948Z,19.84
2018-03-20T02:59:30.904Z,19.69
2018-03-20T03:01:56.900Z,19.72
2018-03-20T03:04:22.850Z,19.70
2018-03-20T03:06:48.799Z,19.69
2018-03-20T03:09:14.757Z,19.65
2018-03-20T03:11:40.710Z,19.60
2018-03-20T03:14:06.661Z,19.68
2018-03-20T03:16:32.615Z,19.67
2018-03-20T03:18:58.567Z,19.70
2018-03-20T03:21:24.530Z,19.65
2018-03-20T03:23:50.520Z,19.65
2018-03-20T03:26:16.486Z,19.61
2018-03-20T03:28:42.434Z,19.66
2018-03-20T03:31:08.387Z,19.54
2018-03-20T03:33:34.372Z,19.54
2018-03-20T03:36:00.329Z,19.61
2018-03-20T03:38:26.277Z,19.74
2018-03-20T03:40:52.234Z,19.88
2018-03-20T03:43:18.187Z,20.01
2018-03-20T03:45:44.141Z,20.10
2018-03-20T03:48:10.102Z,20.12
2018-03-20T03:50:36.066Z,20.03
2018-03-20T03:53:02.039Z,20.05
2018-03-20T03:55:27.982Z,20.10
2018-03-20T03:57:53.926Z,20.08
2018-03-20T04:00:19.910Z,20.05
2018-03-20T04:02:45.870Z,20.08
2018-03-20T04:05:11.870Z,20.15
2018-03-20T04:07:37.856Z,20.13
2018-03-20T04:10:03.832Z,20.21
2018-03-20T04:12:29.815Z,20.07
2018-03-20T04:14:55.774Z,20.26
2018-03-20T04:17:21.768Z,20.22
2018-03-20T04:19:47.730Z,20.20
2018-03-20T04:22:13.683Z,20.29
2018-03-20T04:24:39.646Z,20.30
2018-03-20T04:27:05.589Z,20.24
2018-03-20T04:29:31.573Z,20.28
2018-03-20T04:31:57.574Z,20.28
2018-03-20T04:34:23.543Z,20.22
2018-03-20T04:36:49.515Z,20.25
2018-03-20T04:39:15.490Z,20.22
2018-03-20T04:41:41.532Z,20.30
2018-03-20T04:44:07.491Z,20.40
2018-03-20T04:46:33.545Z,20.31
2018-03-20T04:48:59.511Z,20.26
2018-03-20T04:51:25.468Z,20.32
2018-03-20T04:53:51.458Z,20.39
2018-03-20T04:56:17.406Z,20.34
2018-03-20T04:58:43.375Z,20.36
2018-03-20T05:01:09.390Z,20.35
2018-03-20T05:03:35.362Z,20.37
2018-03-20T05:06:01.417Z,20.34
2018-03-20T05:08:27.387Z,20.36
2018-03-20T05:10:53.338Z,20.32
2018-03-20T05:13:19.302Z,20.29
2018-03-20T05:15:45.290Z,20.20
2018-03-20T05:18:11.247Z,20.33
2018-03-20T05:20:37.219Z,20.31
2018-03-20T05:23:03.171Z,20.26
2018-03-20T05:25:29.130Z,20.28
2018-03-20T05:27:55.098Z,20.35
2018-03-20T05:30:21.051Z,20.30
2018-03-20T05:32:47.007Z,20.38
2018-03-20T05:35:12.965Z,20.25
2018-03-20T05:37:38.922Z,20.31
2018-03-20T05:40:04.885Z,20.39
2018-03-20T05:42:30.857Z,20.33
2018-03-20T05:44:56.816Z,20.30
2018-03-20T05:47:22.774Z,20.32
2018-03-20T05:49:48.762Z,20.35
2018-03-20T05:52:14.709Z,20.28
2018-03-20T05:54:40.674Z,20.29
2018-03-20T05:57:06.624Z,20.34
2018-03-20T05:59:32.609Z,20.41
2018-03-20T06:01:58.582Z,20.35
2018-03-20T06:04:24.569Z,20.25
2018-03-20T06:06:50.538Z,20.30
2018-03-20T06:09:16.489Z,20.24
2018-03-20T06:11:42.455Z,20.29
2018-03-20T06:14:08.394Z,20.29
2018-03-20T06:16:34.346Z,20.17
2018-03-20T06:19:00.325Z,20.23
2018-03-20T06:21:26.294Z,20.22
2018-03-20T06:23:52.257Z,20.13
2018-03-20T06:26:18.222Z,20.12
2018-03-20T06:28:44.186Z,20.28
2018-03-20T06:31:10.146Z,20.35
2018-03-20T06:33:36.126Z,20.36
2018-03-20T06:36:02.081Z,20.32
2018-03-20T06:38:28.047Z,20.34
2018-03-20T06:40:54.014Z,20.35
2018-03-20T06:43:19.965Z,20.32
2018-03-20T06:45:45.918Z,20.30
2018-03-20T06:48:11.917Z,20.31
2018-03-20T06:50:37.883Z,20.31
2018-03-20T06:53:03.826Z,20.29
2018-03-20T06:55:29.819Z,20.26
2018-03-20T06:57:55.792Z,20.24
2018-03-20T07:00:21.742Z,20.26
2018-03-20T07:02:47.707Z,20.31
2018-03-20T07:05:13.667Z,20.32
2018-03-20T07:07:39.641Z,20.35
2018-03-20T07:10:05.594Z,20.42
2018-03-20T07:12:31.587Z,20.32
2018-03-20T07:14:57.550Z,20.26
2018-03-20T07:17:23.520Z,20.34
2018-03-20T07:19:49.485Z,20.33
2018-03-20T07:22:15.456Z,20.23
2018-03-20T07:24:41.422Z,20.23
2018-03-20T07:27:07.405Z,20.21
2018-03-20T07:29:33.349Z,20.22
2018-03-20T07:31:59.335Z,20.18
2018-03-20T07:34:25.324Z,20.33
2018-03-20T07:36:51.284Z,20.40
2018-03-20T07:39:17.240Z,20.42
2018-03-20T07:41:43.199Z,20.41
2018-03-20T07:44:09.166Z,20.40
2018-03-20T07:46:35.121Z,20.36
2018-03-20T07:49:01.098Z,20.29
2018-03-20T07:51:27.070Z,20.31
2018-03-20T07:53:53.053Z,20.26
2018-03-20T07:56:19.016Z,20.30
2018-03-20T07:58:44.967Z,20.33
2018-03-20T08:01:10.941Z,20.19
2018-03-20T08:03:36.902Z,20.21
2018-03-20T08:06:02.857Z,20.32
2018-03-20T08:08:28.801Z,20.31
2018-03-20T08:10:54.763Z,20.22
2018-03-20T08:13:20.758Z,20.23
2018-03-20T08:15:46.726Z,20.28
2018-03-20T08:18:12.707Z,20.37
2018-03-20T08:20:38.662Z,20.49
2018-03-20T08:23:04.641Z,20.51
2018-03-20T08:25:30.598Z,20.43
2018-03-20T08:27:56.549Z,20.52
2018-03-20T08:30:22.554Z,20.56
2018-03-20T08:32:48.535Z,20.51
2018-03-20T08:35:14.513Z,20.52
2018-03-20T08:37:40.485Z,20.59
2018-03-20T08:40:06.435Z,20.52
2018-03-20T08:42:32.396Z,20.55
2018-03-20T08:44:58.433Z,20.49
2018-03-20T08:47:24.406Z,20.45
2018-03-20T08:49:50.397Z,20.41
2018-03-20T08:52:16.371Z,20.42
2018-03-20T08:54:42.367Z,20.38
2018-03-20T08:57:08.317Z,20.42
2018-03-20T08:59:34.337Z,20.36
2018-03-20T09:02:00.297Z,20.37
2018-03-20T09:04:26.247Z,20.37
2018-03-20T09:06:52.228Z,20.33
2018-03-20T09:09:18.187Z,20.32
2018-03-20T09:11:44.145Z,20.38
2018-03-20T09:14:10.133Z,20.43
2018-03-20T09:16:36.086Z,20.62
2018-03-20T09:19:02.040Z,20.52
2018-03-20T09:21:28.009Z,20.48
2018-03-20T09:23:53.961Z,20.46
2018-03-20T09:26:19.944Z,20.49
2018-03-20T09:28:45.966Z,20.49
2018-03-20T09:31:11.939Z,20.49
2018-03-20T09:33:37.905Z,20.47
2018-03-20T09:36:03.869Z,20.44
2018-03-20T09:38:29.830Z,20.51
2018-03-20T09:40:55.803Z,20.42
2018-03-20T09:43:21.756Z,20.43
2018-03-20T09:45:47.802Z,20.46
2018-03-20T09:48:13.768Z,20.37
2018-03-20T09:50:39.744Z,20.39
2018-03-20T09:53:05.744Z,20.33
2018-03-20T09:55:31.725Z,20.48
2018-03-20T09:57:57.705Z,20.55
2018-03-20T10:00:23.710Z,20.62
2018-03-20T10:02:49.678Z,20.59
2018-03-20T10:05:15.629Z,20.53
2018-03-20T10:07:41.605Z,20.55
2018-03-20T10:10:07.577Z,20.49
2018-03-20T10:12:33.562Z,20.51
2018-03-20T10:14:59.540Z,20.51
2018-03-20T10:17:25.507Z,20.45
2018-03-20T10:19:51.458Z,20.47
2018-03-20T10:22:17.438Z,20.55
2018-03-20T10:24:43.402Z,20.39
2018-03-20T10:27:09.358Z,20.33
2018-03-20T10:29:35.325Z,20.44
2018-03-20T10:32:01.336Z,20.47
2018-03-20T10:34:27.262Z,20.42
2018-03-20T10:36:53.278Z,20.37
2018-03-20T10:39:19.238Z,20.49
2018-03-20T10:41:45.206Z,20.45
2018-03-20T10:44:11.153Z,20.54
2018-03-20T10:46:37.142Z,20.61
2018-03-20T10:49:03.139Z,20.61
2018-03-20T10:51:29.061Z,20.57
2018-03-20T10:53:55.022Z,20.56
2018-03-20T10:56:21.006Z,20.49
2018-03-20T10:58:46.977Z,20.50
2018-03-20T11:01:12.957Z,20.54
2018-03-20T11:03:38.932Z,20.44
2018-03-20T11:06:04.894Z,20.48
2018-03-20T11:08:30.862Z,20.55
2018-03-20T11:10:56.830Z,20.51
2018-03-20T11:13:22.741Z,20.50
2018-03-20T11:15:48.698Z,20.44
2018-03-20T11:18:14.670Z,20.40
2018-03-20T11:20:40.632Z,20.43
2018-03-20T11:23:06.581Z,20.41
2018-03-20T11:25:32.554Z,20.48
2018-03-20T11:27:58.509Z,20.43
2018-03-20T11:30:24.464Z,20.38
2018-03-20T11:32:50.441Z,20.31
2018-03-20T11:35:16.401Z,20.27
2018-03-20T11:37:42.343Z,20.44
2018-03-20T11:40:08.409Z,20.59
2018-03-20T11:42:34.374Z,20.62
2018-03-20T11:45:00.339Z,20.59
2018-03-20T11:47:26.302Z,20.59
2018-03-20T11:49:52.260Z,20.60
2018-03-20T11:52:18.222Z,20.56
2018-03-20T11:54:44.174Z,20.54
2018-03-20T11:57:10.148Z,20.56
2018-03-20T11:59:36.102Z,20.48
2018-03-20T12:02:02.090Z,20.56
2018-03-20T12:04:28.074Z,20.48
2018-03-20T12:06:54.025Z,20.47
2018-03-20T12:09:20.057Z,20.43
2018-03-20T12:11:46.073Z,20.43
2018-03-20T12:14:12.011Z,20.46
2018-03-20T12:16:37.967Z,20.43
2018-03-20T12:19:03.915Z,20.40
2018-03-20T12:21:29.910Z,20.35
2018-03-20T12:23:55.861Z,20.32
2018-03-20T12:26:21.836Z,20.45
2018-03-20T12:28:47.802Z,20.34
2018-03-20T12:31:13.757Z,20.36
2018-03-20T12:33:39.854Z,20.41
2018-03-20T12:36:05.802Z,20.38
2018-03-20T12:38:31.790Z,20.43
2018-03-20T12:40:57.789Z,20.40
2018-03-20T12:43:23.727Z,20.41
2018-03-20T12:45:49.707Z,20.40
2018-03-20T12:48:15.722Z,20.39
2018-03-20T12:50:41.687Z,20.38
2018-03-20T12:53:07.653Z,20.34
2018-03-20T12:55:33.630Z,20.56
2018-03-20T12:57:59.607Z,20.64
2018-03-20T13:00:25.588Z,20.73
2018-03-20T13:02:51.564Z,20.73
2018-03-20T13:05:17.570Z,20.62
2018-03-20T13:07:43.670Z,20.64
2018-03-20T13:10:09.656Z,20.62
2018-03-20T13:12:35.625Z,20.60
2018-03-20T13:15:01.595Z,20.64
2018-03-20T13:17:27.595Z,20.53
2018-03-20T13:19:53.594Z,20.51
2018-03-20T13:22:19.594Z,20.49
2018-03-20T13:24:45.554Z,20.42
2018-03-20T13:27:11.516Z,20.47
2018-03-20T13:29:37.480Z,20.42
2018-03-20T13:32:03.441Z,20.37
2018-03-20T13:34:29.410Z,20.37
2018-03-20T13:36:55.381Z,20.38
2018-03-20T13:39:21.346Z,20.33
2018-03-20T13:41:47.325Z,20.36
2018-03-20T13:44:13.291Z,20.32
2018-03-20T13:46:39.292Z,20.39
2018-03-20T13:49:05.265Z,20.39
2018-03-20T13:51:31.240Z,20.36
2018-03-20T13:53:57.207Z,20.33
2018-03-20T13:56:23.203Z,20.41
2018-03-20T13:58:49.149Z,20.38
2018-03-20T14:01:15.127Z,20.52
2018-03-20T14:03:41.110Z,20.36
2018-03-20T14:06:07.092Z,20.40
2018-03-20T14:08:33.115Z,20.41
2018-03-20T14:10:59.095Z,20.47
2018-03-20T14:13:25.074Z,20.44
2018-03-20T14:15:51.074Z,20.44
2018-03-20T14:18:17.059Z,20.42
2018-03-20T14:20:43.043Z,20.47
2018-03-20T14:23:09.022Z,20.48
2018-03-20T14:25:34.995Z,20.50
2018-03-20T14:30:38.852Z,20.41
2018-03-20T14:33:04.849Z,20.35
2018-03-20T14:35:30.826Z,20.37
2018-03-20T14:37:56.798Z,20.35
2018-03-20T14:40:22.779Z,20.32
2018-03-20T14:42:48.723Z,20.33
2018-03-20T14:45:14.719Z,20.35
2018-03-20T14:47:40.663Z,20.35
2018-03-20T14:50:06.762Z,20.32
2018-03-20T14:52:32.753Z,20.38
2018-03-20T14:54:58.729Z,20.35
2018-03-20T14:57:24.691Z,20.36
2018-03-20T14:59:50.662Z,20.32
2018-03-20T15:02:16.631Z,20.34
2018-03-20T15:04:42.591Z,20.39
2018-03-20T15:07:08.551Z,20.30
2018-03-20T15:09:34.530Z,20.33
2018-03-20T15:12:00.505Z,20.36
2018-03-20T15:14:26.508Z,20.39
2018-03-20T15:16:52.704Z,20.35
2018-03-20T15:19:18.716Z,20.36
2018-03-20T15:21:44.719Z,20.34
2018-03-20T15:24:10.728Z,20.30
2018-03-20T15:26:36.721Z,20.28
2018-03-20T15:29:02.679Z,20.29
2018-03-20T15:31:28.698Z,20.28
2018-03-20T15:33:54.677Z,20.26
2018-03-20T15:36:20.648Z,20.30
2018-03-20T15:38:46.731Z,20.33
2018-03-20T15:41:12.706Z,20.28
2018-03-20T15:43:38.664Z,20.28
2018-03-20T15:46:04.710Z,20.27
2018-03-20T15:48:30.711Z,20.25
2018-03-20T15:50:56.678Z,20.25
2018-03-20T15:53:22.651Z,20.27
2018-03-20T15:55:48.623Z,20.23
2018-03-20T15:58:14.643Z,20.28
2018-03-20T16:00:40.583Z,20.32
2018-03-20T16:03:06.622Z,20.28
2018-03-20T16:05:32.704Z,20.30
2018-03-20T16:07:58.637Z,20.28
2018-03-20T16:10:24.723Z,20.27
2018-03-20T16:12:50.690Z,20.32
2018-03-20T16:15:16.685Z,20.29
2018-03-20T16:17:42.648Z,20.28
2018-03-20T16:20:08.593Z,20.26
2018-03-20T16:22:34.554Z,20.27
2018-03-20T16:25:00.525Z,20.33
2018-03-20T16:27:26.514Z,20.42
2018-03-20T16:29:52.495Z,20.41
2018-03-20T16:32:18.509Z,20.33
2018-03-20T16:34:44.490Z,20.23
2018-03-20T16:37:10.469Z,20.25
2018-03-20T16:39:36.474Z,20.21
2018-03-20T16:42:02.465Z,20.24
2018-03-20T16:44:28.450Z,20.20
2018-03-20T16:46:54.418Z,20.25
2018-03-20T16:49:20.399Z,20.36
2018-03-20T16:51:46.382Z,20.34
2018-03-20T16:54:12.359Z,20.37
2018-03-20T16:56:38.511Z,20.34
2018-03-20T16:59:04.491Z,20.40
2018-03-20T17:01:30.496Z,20.45
2018-03-20T17:03:56.484Z,20.35
2018-03-20T17:06:22.486Z,20.36
2018-03-20T17:08:48.450Z,20.31
2018-03-20T17:11:14.424Z,20.36
2018-03-20T17:13:40.406Z,20.33
2018-03-20T17:16:06.380Z,20.35
2018-03-20T17:18:32.390Z,20.32
2018-03-20T17:20:58.528Z,20.30
2018-03-20T17:23:24.498Z,20.26
2018-03-20T17:25:50.479Z,20.28
2018-03-20T17:28:16.451Z,20.29
2018-03-20T17:30:42.422Z,20.27
2018-03-20T17:33:08.421Z,20.28
2018-03-20T17:35:34.370Z,20.28
2018-03-20T17:38:00.377Z,20.37
2018-03-20T17:40:26.359Z,20.28
2018-03-20T17:42:52.327Z,20.43
2018-03-20T17:45:18.290Z,20.36
2018-03-20T17:47:44.359Z,20.29
2018-03-20T17:50:10.338Z,20.30
2018-03-20T17:52:36.314Z,20.33
2018-03-20T17:55:02.287Z,20.28
2018-03-20T17:57:28.260Z,20.32
2018-03-20T17:59:54.323Z,20.29
2018-03-20T18:02:20.294Z,20.26
2018-03-20T18:04:46.263Z,20.26
2018-03-20T18:07:12.298Z,20.30
2018-03-20T18:09:38.286Z,20.31
2018-03-20T18:12:04.262Z,20.31
2018-03-20T18:14:30.239Z,20.29
2018-03-20T18:16:56.223Z,20.28
2018-03-20T18:19:22.213Z,20.27
2018-03-20T18:21:48.209Z,20.30
2018-03-20T18:24:14.173Z,20.36
2018-03-20T18:26:40.144Z,20.27
2018-03-20T18:29:06.118Z,20.32
2018-03-20T18:31:32.086Z,20.33
2018-03-20T18:33:58.094Z,20.36
2018-03-20T18:36:24.109Z,20.33
2018-03-20T18:38:50.191Z,20.31
2018-03-20T18:41:16.209Z,20.37
2018-03-20T18:43:42.214Z,20.30
2018-03-20T18:46:08.167Z,20.34
2018-03-20T18:48:34.131Z,20.35
2018-03-20T18:51:00.095Z,20.31
2018-03-20T18:53:26.092Z,20.32
2018-03-20T18:55:52.088Z,20.28
2018-03-20T18:58:18.086Z,20.27
2018-03-20T19:00:44.053Z,20.24
2018-03-20T19:03:10.015Z,20.30
2018-03-20T19:05:36.029Z,20.30
2018-03-20T19:08:02.006Z,20.29
2018-03-20T19:10:27.976Z,20.31
2018-03-20T19:12:53.934Z,20.33
2018-03-20T19:15:19.926Z,20.31
2018-03-20T19:17:45.932Z,20.34
2018-03-20T19:20:11.932Z,20.30
2018-03-20T19:22:37.894Z,20.33
2018-03-20T19:25:03.896Z,20.36
2018-03-20T19:27:29.872Z,20.41
2018-03-20T19:29:55.866Z,20.37
2018-03-20T19:32:21.847Z,20.31
2018-03-20T19:34:47.811Z,20.32
2018-03-20T19:37:13.811Z,20.31
2018-03-20T19:39:39.782Z,20.29
2018-03-20T19:42:05.740Z,20.28
2018-03-20T19:44:31.744Z,20.28
2018-03-20T19:46:57.707Z,20.28
2018-03-20T19:49:23.676Z,20.28
2018-03-20T19:51:49.649Z,20.34
2018-03-20T19:54:15.630Z,20.28
2018-03-20T19:56:41.693Z,20.31
2018-03-20T19:59:07.687Z,20.28
2018-03-20T20:01:33.690Z,20.33
2018-03-20T20:03:59.660Z,20.31
2018-03-20T20:06:25.640Z,20.32
2018-03-20T20:08:51.597Z,20.33
2018-03-20T20:11:17.577Z,20.33
2018-03-20T20:13:43.570Z,20.32
2018-03-20T20:16:09.551Z,20.38
2018-03-20T20:18:35.566Z,20.35
2018-03-20T20:21:01.549Z,20.37
2018-03-20T20:23:27.539Z,20.35
2018-03-20T20:25:53.516Z,20.32
2018-03-20T20:28:19.493Z,20.33
2018-03-20T20:30:45.443Z,20.37
2018-03-20T20:33:11.416Z,20.38
2018-03-20T20:35:37.406Z,20.37
2018-03-20T20:38:03.386Z,20.42
2018-03-20T20:40:31.699Z,20.41
2018-03-20T20:42:57.654Z,20.42
2018-03-20T20:45:23.646Z,20.51
2018-03-20T20:47:49.612Z,20.51
2018-03-20T20:50:15.606Z,20.47
2018-03-20T20:52:41.664Z,20.46
2018-03-20T20:55:07.665Z,20.49
2018-03-20T20:57:33.698Z,20.43
2018-03-20T20:59:59.679Z,20.41
2018-03-20T21:02:25.656Z,20.36
2018-03-20T21:04:51.679Z,20.42
2018-03-20T21:07:17.687Z,20.34
2018-03-20T21:09:43.667Z,20.33
2018-03-20T21:12:09.928Z,20.35
2018-03-20T21:14:35.925Z,20.34
2018-03-20T21:17:01.910Z,20.30
2018-03-20T21:19:28.006Z,20.30
2018-03-20T21:21:54.035Z,20.26
2018-03-20T21:24:19.950Z,20.28
2018-03-20T21:26:45.993Z,20.24
2018-03-20T21:29:11.973Z,20.20
2018-03-20T21:31:37.977Z,20.21
2018-03-20T21:34:03.922Z,20.27
2018-03-20T21:36:29.911Z,20.23
2018-03-20T21:38:55.880Z,20.21
2018-03-20T21:41:21.869Z,20.19
2018-03-20T21:43:47.860Z,20.21
2018-03-20T21:46:13.824Z,20.18
2018-03-20T21:48:39.827Z,20.21
2018-03-20T21:51:05.892Z,20.16
2018-03-20T21:53:31.841Z,20.16
2018-03-20T21:55:57.774Z,20.16
2018-03-20T21:58:23.818Z,20.15
2018-03-20T22:00:49.784Z,20.14
2018-03-20T22:03:15.770Z,20.14
2018-03-20T22:05:41.726Z,20.10
2018-03-20T22:08:07.694Z,20.07
2018-03-20T22:10:33.699Z,20.04
2018-03-20T22:12:59.650Z,20.10
2018-03-20T22:15:25.660Z,20.07
2018-03-20T22:17:51.561Z,20.07
2018-03-20T22:20:17.595Z,20.06
2018-03-20T22:22:43.574Z,20.07
2018-03-20T22:25:09.530Z,20.06
2018-03-20T22:27:35.518Z,20.01
2018-03-20T22:30:01.484Z,20.03
2018-03-20T22:32:27.441Z,20.01
2018-03-20T22:34:53.449Z,20.01
2018-03-20T22:37:19.427Z,20.00
2018-03-20T22:39:45.403Z,19.95
2018-03-20T22:42:11.381Z,19.98
2018-03-20T22:44:37.341Z,19.95
2018-03-20T22:47:03.319Z,19.97
2018-03-20T22:49:29.310Z,19.96
2018-03-20T22:51:55.267Z,19.95
2018-03-20T22:54:21.218Z,19.93
2018-03-20T22:56:47.181Z,19.89
2018-03-20T22:59:13.130Z,19.91
2018-03-20T23:01:39.118Z,19.93
2018-03-20T23:04:05.071Z,19.94
2018-03-20T23:06:31.077Z,19.92
2018-03-20T23:08:57.054Z,19.92
2018-03-20T23:11:23.018Z,19.97
2018-03-20T23:13:48.970Z,19.86
2018-03-20T23:16:14.946Z,19.91
2018-03-20T23:18:40.936Z,19.87
2018-03-20T23:21:06.911Z,19.87
2018-03-20T23:23:32.887Z,19.83
2018-03-20T23:25:58.867Z,19.84
2018-03-20T23:28:24.833Z,19.76
2018-03-20T23:30:50.794Z,19.77
2018-03-20T23:33:16.968Z,19.95
2018-03-20T23:35:42.980Z,19.91
2018-03-20T23:38:08.973Z,19.79
2018-03-20T23:40:34.990Z,19.79
2018-03-20T23:43:00.996Z,19.77
2018-03-20T23:45:27.097Z,19.77
2018-03-20T23:47:53.154Z,19.77
2018-03-20T23:50:19.106Z,19.73
2018-03-20T23:52:45.087Z,19.74
2018-03-20T23:55:11.037Z,19.77
2018-03-20T23:57:37.019Z,19.75
